Flight Track Log - Related Links

Times and Time Zones

All times are in EDT time to prevent confusion due to time zone crossing. See the SKW4621 flight status page for this flight to view local times or setup timezone preferences in your user account.

Time Position Orientation Groundspeed Altitude Reporting Facility
EDT Latitude Longitude Course Direction KTS MPH feet Rate Location/Type
Fri 03:31:30 PM 44.9333 -93.2833 301° West 200 230 3,900  Level Minneapolis TRACON
Fri 03:32:40 PM 44.9686 -93.3394 312° West 242 278 5,500 2,075 Climbing Minneapolis Center
Fri 03:33:43 PM 45.0417 -93.4583 311° West 294 338 8,500 2,565 Climbing Minneapolis Center
Fri 03:34:00 PM 45.2313 -93.6105 295° West  Level FlightAware
Fri 03:34:44 PM 45.0978 -93.5486 311° West 311 358 10,800  Level Minneapolis Center
Fri 03:35:00 PM 45.2869 -93.7638 301° West  Level FlightAware
Fri 03:35:46 PM 45.1578 -93.6492 310° West 339 390 12,500  Level Minneapolis Center
Fri 03:36:00 PM 45.3495 -93.9120 301° West  Level FlightAware
Fri 03:36:48 PM 45.2225 -93.7531 312° West 352 405 14,600  Level Minneapolis Center
Fri 03:37:50 PM 45.2883 -93.8603 311° West 360 414 16,200 1,403 Climbing Minneapolis Center
Fri 03:38:52 PM 45.3544 -93.9686 311° West 365 420 17,500 1,317 Climbing Minneapolis Center
Fri 03:39:53 PM 45.4311 -94.1067 308° West 370 426 18,900 1,366 Climbing Minneapolis Center
Fri 03:40:55 PM 45.4797 -94.2381 298° West 376 433 20,300 1,355 Climbing Minneapolis Center
Fri 03:41:57 PM 45.5300 -94.3708 298° West 382 440 21,700 1,463 Climbing Minneapolis Center
Fri 03:42:58 PM 45.5806 -94.5025 299° West 382 440 23,300 1,268 Climbing Minneapolis Center
Fri 03:44:00 PM 45.6444 -94.6286 306° West 392 451 24,300 871 Climbing Minneapolis Center
Fri 03:45:02 PM 45.7119 -94.7603 306° West 408 470 25,100 677 Climbing Minneapolis Center
Fri 03:46:04 PM 45.7825 -94.8967 307° West 423 487 25,700 439 Climbing Minneapolis Center
Fri 03:47:05 PM 45.8636 -95.0561 306° West 438 504 26,000 146 Climbing Minneapolis Center
Fri 03:48:07 PM 45.9406 -95.2064 306° West 460 529 26,000  Level Minneapolis Center
Fri 03:49:09 PM 46.0181 -95.3594 306° West 473 544 26,000  Level Minneapolis Center
Fri 03:50:10 PM 46.0978 -95.5178 306° West 487 560 26,000 -634 Level Minneapolis Center
Fri 03:51:12 PM 46.1875 -95.6969 306° West 464 534 24,700 -2,081 Descending Minneapolis Center
Fri 03:52:14 PM 46.2586 -95.8414 305° West 438 504 21,700 -2,976 Descending Minneapolis Center
Fri 03:53:15 PM 46.3258 -95.9769 306° West 420 483 18,600 -2,829 Descending Minneapolis Center
Fri 03:54:17 PM 46.3914 -96.1094 306° West 398 458 15,900 -2,661 Descending Minneapolis Center
Fri 03:55:19 PM 46.4561 -96.2414 305° West 389 448 13,100 -2,000 Descending Minneapolis Center
Fri 03:56:20 PM 46.5122 -96.3567 305° West 335 386 11,800 -1,463 Descending Minneapolis Center
Fri 03:57:22 PM 46.5564 -96.4608 302° West 295 339 10,100 -1,790 Descending Minneapolis Center
Fri 03:58:24 PM 46.5872 -96.5633 294° West 286 329 8,100 -1,854 Descending Minneapolis Center
Fri 03:59:25 PM 46.6156 -96.6728 291° West 279 321 6,300 -1,024 Descending Minneapolis Center
Fri 04:00:27 PM 46.6417 -96.7697 291° West 244 281 6,000 -194 Descending Minneapolis Center
Fri 04:01:29 PM 46.6919 -96.8092 332° Northwest 205 236 5,900 -677 Descending Minneapolis Center
Fri 04:02:31 PM 46.7417 -96.8194 352° North 188 216 4,600 -1,258 Descending Minneapolis Center

Login

Don't have an account? Register now (free) for customized features, flight alerts, and more!